TAF Text Data
IDs:
Format:
Raw Decoded Include METAR

Data at: 0623 UTC 07 Dec 2022

KBDL 070539Z 0706/0812 16003KT 4SM -SHRA BR OVC008
  FM071500 17006KT 3SM BR VCSH OVC006
  FM071600 17006KT 1SM BR VCSH OVC005
  FM080000 20004KT 1 1/2SM BR OVC004
  FM080400 31004KT 4SM BR BKN030
  FM080500 32004KT 6SM BR BKN050